KDGW/DGW METAR and TAF weather

Enter ICAO airport designator
Station Type Date Time Source
KDGW METAR 2020/01/22 11:53 UTC NOAA

KDGW 221153Z AUTO 31008KT 10SM OVC080 02/M06 A2980 RMK AO2 SLP090 T00171061 10033 21011 53006


Station Type Date Time Source
KDGW Decoded METAR 2020/01/22 11:53 UTC NOAA

DOUGLAS CONVERSE COUNTY, WY, United States (KDGW) 42-48N 105-23W 1499M
Jan 22, 2020 - 06:53 AM EST / 2020.01.22 1153 UTC
Wind: from the NW (310 degrees) at 9 MPH (8 KT):0
Visibility: 10 mile(s):0
Sky conditions: overcast
Temperature: 35.1 F (1.7 C)
Dew Point: 21.0 F (-6.1 C)
Relative Humidity: 56%
Pressure (altimeter): 29.8 in. Hg (1009 hPa)
Pressure tendency: 0.02 inches (0.6 hPa) higher than three hours ago
ob: KDGW 221153Z AUTO 31008KT 10SM OVC080 02/M06 A2980 RMK AO2 SLP090 T00171061 10033 21011 53006
cycle: 12

Station Type Date Time Source
KDGW TAF UTC NOAA

Error!

Example: see airport list